Terminal Aerodrome Forecast
Issued by NWS

Current Version | Previous Version | Text Only | Print | Product List | Glossary On
Versions: 1 2 3 4 5 6 7 8 9 10 11 12 13
689
FTUS42 TJSJ 271325 AAB
TAFJSJ
TAF AMD
TJSJ 271325Z 2713/2812 07012KT P6SM VCSH SCT030 SCT050
      TEMPO 2713/2715 6SM -SHRA BKN040
     FM272300 11008KT P6SM SCT025=

USA.gov is the U.S. government's official web portal to all federal, state and local government web resources and services.